Time;durP1;ratioP1;P1;durP2;ratioP2;P2;SDS_P1;SDS_P2;PMS_P1;PMS_P2;Temp;Humidity;BMP_temperature;BMP_pressure;BME280_temperature;BME280_humidity;BME280_pressure;Samples;Min_cycle;Max_cycle;Signal;HPM_P1;HPM_P2
2022/06/09 00:02:22;;;;;;;2.00;1.00;;;14.70;99.90;;;;;;4993953;28;20030;-80
2022/06/09 00:04:48;;;;;;;0.93;0.80;;;14.70;99.90;;;;;;5008328;28;20045;-79
2022/06/09 00:07:17;;;;;;;0.80;0.80;;;14.70;99.90;;;;;;5013445;28;20030;-79
2022/06/09 00:09:55;;;;;;;1.33;0.80;;;14.60;99.90;;;;;;5014183;28;20480;-79
2022/06/09 00:12:22;;;;;;;1.67;0.95;;;14.70;99.90;;;;;;5007365;28;20034;-79
2022/06/09 00:14:48;;;;;;;1.65;0.90;;;14.70;99.90;;;;;;5007628;28;20487;-80
2022/06/09 00:17:14;;;;;;;2.08;0.90;;;14.70;99.90;;;;;;5010299;28;20069;-79
2022/06/09 00:19:39;;;;;;;1.75;0.80;;;14.70;99.90;;;;;;5003272;28;20117;-79
2022/06/09 00:22:05;;;;;;;1.98;0.82;;;14.60;99.90;;;;;;5029808;28;20038;-79
2022/06/09 00:24:31;;;;;;;1.00;0.80;;;14.60;99.90;;;;;;5010197;28;20029;-79
2022/06/09 00:26:57;;;;;;;0.95;0.90;;;14.60;99.90;;;;;;5013924;28;20039;-79
2022/06/09 00:29:22;;;;;;;0.70;0.70;;;14.60;99.90;;;;;;4996464;28;20051;-80
2022/06/09 00:31:48;;;;;;;1.65;0.70;;;14.60;99.90;;;;;;5023677;28;20030;-80
2022/06/09 00:34:14;;;;;;;2.15;0.73;;;14.50;99.90;;;;;;5002775;28;20030;-79
2022/06/09 00:36:39;;;;;;;3.80;0.80;;;14.50;99.90;;;;;;5009718;28;20042;-79
2022/06/09 00:39:05;;;;;;;0.90;0.70;;;14.50;99.90;;;;;;4993367;28;20034;-80
2022/06/09 00:41:41;;;;;;;1.02;0.70;;;14.60;99.90;;;;;;5010409;28;20033;-79
2022/06/09 00:44:21;;;;;;;4.38;0.90;;;14.60;99.90;;;;;;5005088;28;20105;-80
2022/06/09 00:46:54;;;;;;;2.13;0.73;;;14.50;99.90;;;;;;5004305;28;20381;-79
2022/06/09 00:49:42;;;;;;;1.13;0.68;;;14.60;99.90;;;;;;5000189;28;20031;-79
2022/06/09 00:52:10;;;;;;;1.58;0.80;;;14.50;99.90;;;;;;5008935;28;20125;-79
2022/06/09 00:54:42;;;;;;;4.28;0.93;;;14.50;99.90;;;;;;4994484;28;20521;-79
2022/06/09 00:57:15;;;;;;;1.10;0.63;;;14.50;99.90;;;;;;5025486;28;20030;-80
2022/06/09 00:59:48;;;;;;;0.90;0.70;;;14.50;99.90;;;;;;4986475;28;20489;-79
2022/06/09 01:02:18;;;;;;;0.60;0.60;;;14.50;99.90;;;;;;5020557;28;20244;-80
2022/06/09 01:04:45;;;;;;;1.50;0.82;;;14.50;99.90;;;;;;5008356;28;20512;-80
2022/06/09 01:07:17;;;;;;;0.80;0.80;;;14.50;99.90;;;;;;5010917;28;20038;-79
2022/06/09 01:09:44;;;;;;;1.48;0.80;;;14.50;99.90;;;;;;5014749;28;20045;-79
2022/06/09 01:12:41;;;;;;;0.88;0.88;;;14.50;99.90;;;;;;5009084;28;20034;-79
2022/06/09 01:15:16;;;;;;;0.60;0.57;;;14.50;99.90;;;;;;4992550;28;20042;-80
2022/06/09 01:18:03;;;;;;;2.58;0.90;;;14.50;99.90;;;;;;5023433;28;20133;-79
2022/06/09 01:20:39;;;;;;;1.90;0.90;;;14.40;99.90;;;;;;4991098;28;20081;-79
2022/06/09 01:23:17;;;;;;;1.25;1.15;;;14.40;99.90;;;;;;5026536;28;20029;-79
2022/06/09 01:26:23;;;;;;;2.92;0.65;;;14.40;99.90;;;;;;5001470;28;20026;-79
2022/06/09 01:29:39;;;;;;;1.02;0.90;;;14.50;99.90;;;;;;4998332;28;20023;-80
2022/06/09 01:32:31;;;;;;;0.90;0.90;;;14.40;99.90;;;;;;4997431;28;20036;-80
2022/06/09 01:35:31;;;;;;;1.15;1.05;;;14.40;99.90;;;;;;5005940;28;20030;-79
2022/06/09 01:37:59;;;;;;;2.22;0.90;;;14.40;99.90;;;;;;5009752;28;20033;-80
2022/06/09 01:40:26;;;;;;;3.22;1.67;;;14.40;99.90;;;;;;5010099;28;20141;-79
2022/06/09 01:42:57;;;;;;;1.38;0.93;;;14.40;99.90;;;;;;5010720;28;20469;-80
2022/06/09 01:45:39;;;;;;;1.15;0.60;;;14.40;99.90;;;;;;4988799;28;20084;-80
2022/06/09 01:48:11;;;;;;;0.80;0.73;;;14.40;99.90;;;;;;5019259;28;20097;-79
2022/06/09 01:50:48;;;;;;;1.98;0.80;;;14.40;99.90;;;;;;4992101;28;20111;-79
2022/06/09 01:53:22;;;;;;;0.93;0.88;;;14.40;99.90;;;;;;5004797;28;20080;-79
2022/06/09 01:56:06;;;;;;;0.75;0.75;;;14.40;99.90;;;;;;4991914;28;20026;-79
2022/06/09 01:58:41;;;;;;;0.90;0.90;;;14.40;99.90;;;;;;4991669;28;20030;-79
2022/06/09 02:01:09;;;;;;;1.88;1.30;;;14.30;99.90;;;;;;5004007;28;20034;-79
2022/06/09 02:03:40;;;;;;;2.80;0.90;;;14.30;99.90;;;;;;5010997;28;20038;-79
2022/06/09 02:06:08;;;;;;;1.60;0.95;;;14.30;99.90;;;;;;5006368;28;20036;-79
2022/06/09 02:08:35;;;;;;;1.75;0.82;;;14.30;99.90;;;;;;4991865;28;20030;-79
2022/06/09 02:11:07;;;;;;;1.50;0.90;;;14.30;99.90;;;;;;5011942;28;20054;-79
2022/06/09 02:13:40;;;;;;;1.45;1.00;;;14.30;99.90;;;;;;4977715;28;20038;-79
2022/06/09 02:16:08;;;;;;;1.25;0.90;;;14.30;99.90;;;;;;4984270;28;20526;-79
2022/06/09 02:18:40;;;;;;;1.00;0.80;;;14.30;99.90;;;;;;5014991;28;20057;-79
2022/06/09 02:21:10;;;;;;;2.22;1.00;;;14.30;99.90;;;;;;5018211;28;20712;-79
2022/06/09 02:23:37;;;;;;;0.90;0.80;;;14.30;99.90;;;;;;5006784;28;20671;-79
2022/06/09 02:26:04;;;;;;;0.88;0.85;;;14.30;99.90;;;;;;5017727;28;20465;-79
2022/06/09 02:28:30;;;;;;;1.50;0.90;;;14.30;99.90;;;;;;5009616;28;20029;-79
2022/06/09 02:30:56;;;;;;;0.82;0.82;;;14.30;99.90;;;;;;5017752;28;20377;-79
2022/06/09 02:33:22;;;;;;;1.10;1.00;;;14.30;99.90;;;;;;5021507;28;20037;-79
2022/06/09 02:35:49;;;;;;;1.45;0.98;;;14.30;99.90;;;;;;5010582;28;20025;-80
2022/06/09 02:38:15;;;;;;;0.98;0.80;;;14.30;99.90;;;;;;5015662;28;20030;-79
2022/06/09 02:40:41;;;;;;;2.25;0.90;;;14.30;99.90;;;;;;5017085;28;20029;-79
2022/06/09 02:43:06;;;;;;;2.88;1.00;;;14.30;99.90;;;;;;4995709;28;20593;-79
2022/06/09 02:45:33;;;;;;;2.78;0.90;;;14.30;99.90;;;;;;5013015;28;20037;-79
2022/06/09 02:47:59;;;;;;;0.90;0.90;;;14.30;99.90;;;;;;5025437;28;20038;-79
2022/06/09 02:50:26;;;;;;;1.05;0.90;;;14.30;99.90;;;;;;5021610;28;20954;-79
2022/06/09 02:52:51;;;;;;;1.02;1.00;;;14.30;99.90;;;;;;5002834;28;20034;-79
2022/06/09 02:55:17;;;;;;;2.00;1.05;;;14.30;99.90;;;;;;5027831;28;20045;-79
2022/06/09 02:57:43;;;;;;;1.48;0.98;;;14.30;99.90;;;;;;4997764;28;20038;-79
2022/06/09 03:00:12;;;;;;;1.20;1.10;;;14.30;99.90;;;;;;5011734;28;20061;-79
2022/06/09 03:02:38;;;;;;;0.80;0.80;;;14.30;99.90;;;;;;5013391;28;20037;-79
2022/06/09 03:05:04;;;;;;;1.15;1.00;;;14.30;99.90;;;;;;4998519;28;20041;-79
2022/06/09 03:07:30;;;;;;;1.75;0.95;;;14.30;99.90;;;;;;4993561;28;20436;-80
2022/06/09 03:09:56;;;;;;;2.13;1.20;;;14.30;99.90;;;;;;5004132;28;20052;-79
2022/06/09 03:12:24;;;;;;;2.45;1.00;;;14.30;99.90;;;;;;5014828;28;20572;-79
2022/06/09 03:14:50;;;;;;;1.25;1.00;;;14.20;99.90;;;;;;5007600;28;20050;-80
2022/06/09 03:17:16;;;;;;;0.80;0.80;;;14.20;99.90;;;;;;4996001;28;20069;-79
2022/06/09 03:19:42;;;;;;;1.70;1.10;;;14.10;99.90;;;;;;4995699;28;20543;-79
2022/06/09 03:22:07;;;;;;;2.20;1.20;;;14.20;99.90;;;;;;5002046;28;20048;-79
2022/06/09 03:24:33;;;;;;;1.00;0.90;;;14.20;99.90;;;;;;5011499;28;20501;-79
2022/06/09 03:26:59;;;;;;;1.95;1.15;;;14.10;99.90;;;;;;5015024;28;20026;-80
2022/06/09 03:29:25;;;;;;;3.22;0.88;;;14.20;99.90;;;;;;5010418;28;20120;-79
2022/06/09 03:31:52;;;;;;;1.63;0.85;;;14.10;99.90;;;;;;5016069;28;20030;-79
2022/06/09 03:34:21;;;;;;;2.25;0.98;;;14.10;99.90;;;;;;5013724;28;20053;-79
2022/06/09 03:36:46;;;;;;;1.23;0.77;;;14.10;99.90;;;;;;5019865;28;20029;-79
2022/06/09 03:39:13;;;;;;;0.70;0.70;;;14.00;99.90;;;;;;4992690;28;20411;-79
2022/06/09 03:41:39;;;;;;;1.65;0.70;;;14.10;99.90;;;;;;5015495;28;20587;-79
2022/06/09 03:44:05;;;;;;;0.98;0.85;;;14.10;99.90;;;;;;5019700;28;20022;-79
2022/06/09 03:46:31;;;;;;;0.70;0.70;;;14.10;99.90;;;;;;5020026;28;20119;-79
2022/06/09 03:48:57;;;;;;;0.90;0.70;;;14.00;99.90;;;;;;5021474;28;20053;-79
2022/06/09 03:51:23;;;;;;;0.77;0.77;;;14.10;99.90;;;;;;4994782;28;20061;-79
2022/06/09 03:53:49;;;;;;;1.38;0.70;;;14.00;99.90;;;;;;5003853;28;20075;-79
2022/06/09 03:56:19;;;;;;;1.30;0.50;;;14.00;99.90;;;;;;5008778;28;20033;-79
2022/06/09 03:58:45;;;;;;;0.90;0.90;;;14.00;99.90;;;;;;4981887;28;20237;-79
2022/06/09 04:01:13;;;;;;;0.75;0.70;;;14.10;99.90;;;;;;4999644;28;20104;-79
2022/06/09 04:03:40;;;;;;;1.17;0.70;;;14.10;99.90;;;;;;5011643;28;20030;-79
2022/06/09 04:06:11;;;;;;;0.98;0.73;;;14.10;99.90;;;;;;5040365;28;20038;-79
2022/06/09 04:08:37;;;;;;;1.05;0.68;;;14.20;99.90;;;;;;5011762;28;20045;-80
2022/06/09 04:11:03;;;;;;;0.80;0.80;;;14.20;99.90;;;;;;5012753;28;20022;-80
2022/06/09 04:13:29;;;;;;;1.73;0.77;;;14.20;99.90;;;;;;5007291;28;20049;-80
2022/06/09 04:15:54;;;;;;;1.50;0.90;;;14.30;99.90;;;;;;5001794;28;20534;-80
2022/06/09 04:18:20;;;;;;;0.73;0.68;;;14.30;99.90;;;;;;5008551;28;20092;-80
2022/06/09 04:20:46;;;;;;;0.65;0.65;;;14.30;99.90;;;;;;5012805;28;20057;-80
2022/06/09 04:23:12;;;;;;;1.20;0.77;;;14.30;99.90;;;;;;5014209;28;20536;-80
2022/06/09 04:25:38;;;;;;;1.60;0.70;;;14.30;99.90;;;;;;5007030;28;20033;-80
2022/06/09 04:28:04;;;;;;;0.85;0.85;;;14.30;99.90;;;;;;5013589;28;20073;-80
2022/06/09 04:30:30;;;;;;;0.80;0.80;;;14.30;99.90;;;;;;4996176;28;20361;-80
2022/06/09 04:32:57;;;;;;;2.08;0.63;;;14.40;99.90;;;;;;5011403;28;20492;-80
2022/06/09 04:35:24;;;;;;;1.75;1.00;;;14.40;99.90;;;;;;5002303;28;20108;-80
2022/06/09 04:38:03;;;;;;;1.58;0.90;;;14.40;99.90;;;;;;5003820;28;20421;-80
2022/06/09 04:40:35;;;;;;;0.98;0.80;;;14.40;99.90;;;;;;5008511;28;20037;-80
2022/06/09 04:43:01;;;;;;;0.57;0.57;;;14.40;99.90;;;;;;4992455;28;20034;-80
2022/06/09 04:45:27;;;;;;;1.27;0.80;;;14.50;99.90;;;;;;5013476;28;20030;-80
2022/06/09 04:47:53;;;;;;;0.90;0.90;;;14.50;99.90;;;;;;5018311;28;20030;-80
2022/06/09 04:50:19;;;;;;;1.02;1.00;;;14.50;99.90;;;;;;4995493;28;20041;-80
2022/06/09 04:52:46;;;;;;;1.23;0.95;;;14.50;99.90;;;;;;4985633;28;20026;-80
2022/06/09 04:55:12;;;;;;;0.90;0.90;;;14.50;99.90;;;;;;5012350;28;20552;-80
2022/06/09 04:57:38;;;;;;;2.35;1.17;;;14.60;99.90;;;;;;5005731;28;20057;-80
2022/06/09 05:00:06;;;;;;;1.38;0.90;;;14.60;99.90;;;;;;5001256;28;20091;-80
2022/06/09 05:02:32;;;;;;;1.00;0.77;;;14.60;99.90;;;;;;5011678;28;20033;-80
2022/06/09 05:04:58;;;;;;;1.30;0.90;;;14.70;99.90;;;;;;5011917;28;20026;-80
2022/06/09 05:07:25;;;;;;;2.45;1.10;;;14.70;99.90;;;;;;5008856;28;20467;-80
2022/06/09 05:09:50;;;;;;;2.58;1.05;;;14.70;99.90;;;;;;5011289;28;20034;-80
2022/06/09 05:12:16;;;;;;;1.00;0.90;;;14.80;99.90;;;;;;4999876;28;20056;-80
2022/06/09 05:14:42;;;;;;;0.93;0.80;;;14.80;99.90;;;;;;5006042;28;20029;-80
2022/06/09 05:17:08;;;;;;;0.90;0.90;;;14.80;99.90;;;;;;4994803;28;20042;-80
2022/06/09 05:19:34;;;;;;;2.55;1.00;;;14.90;99.90;;;;;;5024815;28;20385;-81
2022/06/09 05:21:59;;;;;;;2.05;1.17;;;15.00;99.90;;;;;;5004260;28;20102;-79
2022/06/09 05:24:25;;;;;;;0.90;0.90;;;15.00;99.90;;;;;;5006928;28;20041;-79
2022/06/09 05:26:51;;;;;;;1.20;0.93;;;15.00;99.90;;;;;;5014767;28;20041;-80
2022/06/09 05:29:17;;;;;;;1.20;0.90;;;15.10;99.90;;;;;;5010535;28;20026;-80
2022/06/09 05:31:43;;;;;;;2.00;1.05;;;15.10;99.90;;;;;;5015549;28;20026;-80
2022/06/09 05:34:10;;;;;;;2.97;1.10;;;15.10;99.90;;;;;;4998699;28;20045;-80
2022/06/09 05:36:36;;;;;;;1.10;1.00;;;15.20;99.90;;;;;;5008115;28;20041;-80
2022/06/09 05:44:52;;;;;;;1.27;1.00;;;15.40;99.90;;;;;;5007400;28;20393;-80
2022/06/09 05:47:23;;;;;;;1.67;0.88;;;15.50;99.90;;;;;;5011607;28;20028;-81
2022/06/09 05:49:53;;;;;;;1.98;1.00;;;15.60;99.90;;;;;;5013834;28;20026;-81
2022/06/09 05:52:28;;;;;;;1.17;1.02;;;15.70;99.90;;;;;;4996004;28;20035;-80
2022/06/09 05:54:54;;;;;;;0.95;0.90;;;15.80;99.90;;;;;;4996585;28;20034;-80
2022/06/09 05:57:22;;;;;;;0.70;0.70;;;16.10;99.90;;;;;;5014177;28;20112;-80
2022/06/09 05:59:48;;;;;;;1.17;0.65;;;16.50;99.90;;;;;;4996091;28;20038;-80
2022/06/09 06:02:15;;;;;;;1.15;0.60;;;16.80;99.90;;;;;;5016809;28;20046;-82
2022/06/09 06:04:42;;;;;;;0.85;0.75;;;17.00;99.90;;;;;;5014849;28;20053;-80
2022/06/09 06:07:07;;;;;;;0.88;0.73;;;17.00;99.90;;;;;;5010943;28;20060;-80
2022/06/09 06:09:34;;;;;;;2.00;0.68;;;17.00;99.90;;;;;;4994935;28;20078;-80
2022/06/09 06:12:00;;;;;;;0.80;0.80;;;17.00;99.90;;;;;;5011689;28;20045;-80
2022/06/09 06:14:27;;;;;;;1.10;0.70;;;16.90;99.90;;;;;;5014342;28;20129;-81
2022/06/09 06:16:53;;;;;;;1.13;0.75;;;16.80;99.90;;;;;;4985684;28;20496;-80
2022/06/09 06:19:19;;;;;;;2.00;0.70;;;16.80;99.90;;;;;;5013804;28;20511;-80
2022/06/09 06:21:47;;;;;;;1.25;0.80;;;16.90;99.90;;;;;;5005452;28;20029;-80
2022/06/09 06:24:14;;;;;;;3.67;0.90;;;17.00;99.90;;;;;;5013282;28;20037;-80
2022/06/09 06:26:40;;;;;;;1.10;0.70;;;17.10;99.90;;;;;;5011334;28;20025;-79
2022/06/09 06:29:08;;;;;;;0.73;0.68;;;17.10;99.90;;;;;;5024615;28;20396;-80
2022/06/09 06:31:34;;;;;;;1.27;0.73;;;17.10;99.90;;;;;;5026537;28;20047;-80
2022/06/09 06:34:00;;;;;;;4.07;0.70;;;17.10;99.90;;;;;;5003156;28;20117;-81
2022/06/09 06:36:27;;;;;;;1.30;0.70;;;17.00;99.90;;;;;;5015236;28;20534;-80
2022/06/09 06:38:53;;;;;;;0.90;0.80;;;17.10;99.90;;;;;;5009854;28;20030;-80
2022/06/09 06:41:19;;;;;;;0.80;0.80;;;17.10;99.90;;;;;;5014795;28;20104;-80
2022/06/09 06:43:46;;;;;;;1.80;0.70;;;17.00;99.90;;;;;;5000092;28;20122;-81
2022/06/09 06:46:13;;;;;;;0.60;0.60;;;17.20;99.90;;;;;;4978624;28;20057;-81
2022/06/09 06:48:38;;;;;;;0.60;0.60;;;17.40;99.90;;;;;;5006572;28;20026;-80
2022/06/09 06:51:07;;;;;;;1.02;0.65;;;17.80;99.90;;;;;;5010764;28;20543;-80
2022/06/09 06:53:34;;;;;;;1.20;0.80;;;18.30;99.90;;;;;;5018694;28;20037;-80
2022/06/09 06:56:01;;;;;;;1.15;0.80;;;18.80;99.90;;;;;;5016713;28;20033;-81
2022/06/09 06:58:27;;;;;;;0.95;0.85;;;19.10;99.90;;;;;;5004394;28;20127;-81
2022/06/09 07:00:53;;;;;;;1.38;0.60;;;19.20;99.90;;;;;;5012878;28;20022;-79
2022/06/09 07:03:19;;;;;;;1.48;1.08;;;19.60;99.90;;;;;;5011568;28;20120;-81
2022/06/09 07:05:45;;;;;;;2.13;1.30;;;20.10;99.90;;;;;;5007997;28;20053;-80
2022/06/09 07:08:15;;;;;;;3.22;2.10;;;20.20;99.90;;;;;;4975342;28;20448;-80
2022/06/09 07:10:41;;;;;;;3.17;1.13;;;20.00;99.90;;;;;;5004303;28;20026;-81
2022/06/09 07:13:07;;;;;;;1.30;1.20;;;19.70;99.90;;;;;;5008450;28;20030;-80
2022/06/09 07:15:34;;;;;;;1.92;1.45;;;19.30;99.90;;;;;;4995664;28;20493;-80
2022/06/09 07:17:59;;;;;;;2.22;1.10;;;18.90;99.90;;;;;;4994901;28;20038;-80
2022/06/09 07:20:26;;;;;;;4.63;1.98;;;18.50;99.90;;;;;;4980740;28;20053;-80
2022/06/09 07:22:53;;;;;;;3.10;1.50;;;18.20;99.90;;;;;;5031775;28;20075;-81
2022/06/09 07:25:19;;;;;;;3.30;1.15;;;17.80;99.90;;;;;;5016461;28;20037;-81
2022/06/09 07:27:47;;;;;;;4.75;1.58;;;17.50;99.90;;;;;;5009001;28;20030;-80
2022/06/09 07:30:14;;;;;;;5.20;1.90;;;17.20;99.90;;;;;;5009683;28;20029;-80
2022/06/09 07:32:40;;;;;;;2.97;1.92;;;16.90;99.90;;;;;;5008970;28;20040;-81
2022/06/09 07:35:08;;;;;;;6.75;2.10;;;16.70;99.90;;;;;;4992549;28;20390;-80
2022/06/09 07:37:34;;;;;;;3.65;1.90;;;16.50;99.90;;;;;;4996732;28;20037;-80
2022/06/09 07:40:00;;;;;;;2.97;1.95;;;16.30;99.90;;;;;;5012621;28;20040;-80
2022/06/09 07:42:26;;;;;;;2.25;1.90;;;16.30;99.90;;;;;;5030729;28;20519;-80
2022/06/09 07:44:53;;;;;;;3.22;2.17;;;16.30;99.90;;;;;;5012414;28;20073;-80
2022/06/09 07:47:18;;;;;;;3.75;1.70;;;16.40;99.90;;;;;;5010869;28;20120;-81
2022/06/09 07:49:44;;;;;;;2.40;1.73;;;16.50;99.90;;;;;;5002467;28;20160;-80
2022/06/09 07:52:11;;;;;;;4.72;2.70;;;16.70;99.90;;;;;;5006481;28;20030;-80
2022/06/09 07:54:37;;;;;;;2.72;1.73;;;17.00;99.90;;;;;;5007917;28;20430;-80
2022/06/09 07:57:03;;;;;;;4.90;1.90;;;17.20;99.90;;;;;;5006856;28;20088;-81
2022/06/09 07:59:29;;;;;;;2.90;1.75;;;17.40;99.90;;;;;;4988441;28;20033;-80
2022/06/09 08:01:55;;;;;;;4.50;2.00;;;17.50;99.90;;;;;;4989185;28;20413;-80
2022/06/09 08:04:21;;;;;;;1.63;1.52;;;17.50;99.90;;;;;;4988017;28;20027;-80
2022/06/09 08:06:47;;;;;;;2.40;1.38;;;17.60;99.90;;;;;;5002289;28;20031;-80
2022/06/09 08:09:12;;;;;;;3.47;2.00;;;17.50;99.90;;;;;;5004595;28;20404;-80
2022/06/09 08:11:39;;;;;;;5.03;2.17;;;17.50;99.90;;;;;;4991056;28;20049;-80
2022/06/09 08:14:06;;;;;;;4.82;2.05;;;17.40;99.90;;;;;;4990892;28;20042;-80
2022/06/09 08:16:33;;;;;;;3.67;1.88;;;17.40;99.90;;;;;;5004022;28;20081;-80
2022/06/09 08:18:59;;;;;;;2.22;1.50;;;17.40;99.90;;;;;;4987044;28;20045;-81
2022/06/09 08:21:26;;;;;;;2.35;1.70;;;17.40;99.90;;;;;;5011543;28;20054;-81
2022/06/09 08:23:52;;;;;;;2.72;1.83;;;17.40;99.90;;;;;;5000345;28;20050;-81
2022/06/09 08:26:18;;;;;;;3.40;1.30;;;17.40;99.90;;;;;;5003032;28;20069;-81
2022/06/09 08:28:44;;;;;;;2.38;1.85;;;17.40;99.90;;;;;;4972259;28;20473;-81
2022/06/09 08:31:10;;;;;;;1.58;1.15;;;17.40;99.90;;;;;;4984171;28;20041;-81
2022/06/09 08:33:36;;;;;;;2.55;1.42;;;17.50;99.90;;;;;;5003439;28;20473;-81
2022/06/09 08:36:03;;;;;;;2.60;1.50;;;17.70;99.90;;;;;;5007600;28;20018;-80
2022/06/09 08:38:29;;;;;;;3.08;1.35;;;18.00;99.90;;;;;;4993182;28;20029;-80
2022/06/09 08:41:13;;;;;;;1.88;1.25;;;18.30;99.90;;;;;;4984823;28;20045;-80
2022/06/09 08:44:10;;;;;;;2.67;1.48;;;18.70;99.90;;;;;;4988223;28;20536;-80
2022/06/09 08:46:49;;;;;;;5.93;1.98;;;18.90;99.90;;;;;;5006776;28;20034;-79
2022/06/09 08:49:39;;;;;;;4.30;1.20;;;18.90;99.90;;;;;;5006550;28;20392;-77
2022/06/09 08:52:19;;;;;;;2.90;1.30;;;18.80;99.90;;;;;;5006732;28;20444;-77
2022/06/09 08:54:46;;;;;;;3.30;1.30;;;18.60;99.90;;;;;;5002598;28;20077;-78
2022/06/09 08:57:17;;;;;;;1.02;0.93;;;18.60;99.90;;;;;;5031026;28;20035;-81
2022/06/09 08:59:49;;;;;;;1.17;1.02;;;18.60;99.90;;;;;;4989034;28;20459;-78
2022/06/09 09:02:27;;;;;;;3.00;0.93;;;19.00;99.90;;;;;;4993299;28;20038;-79
2022/06/09 09:05:05;;;;;;;1.85;1.00;;;19.20;99.90;;;;;;5012530;28;20022;-78
2022/06/09 09:07:33;;;;;;;2.45;1.13;;;19.50;99.90;;;;;;5017170;28;20080;-78
2022/06/09 09:10:38;;;;;;;4.95;1.00;;;19.80;99.90;;;;;;5012057;28;20118;-78
2022/06/09 09:13:04;;;;;;;2.58;1.10;;;19.60;99.90;;;;;;4995902;28;20050;-78
2022/06/09 09:15:38;;;;;;;2.08;1.20;;;19.70;99.90;;;;;;5010850;28;20025;-78
2022/06/09 09:18:44;;;;;;;1.58;0.90;;;19.80;99.90;;;;;;5010937;28;20497;-78
2022/06/09 09:21:47;;;;;;;0.95;0.70;;;20.00;99.90;;;;;;5008264;28;20030;-78
2022/06/09 09:24:18;;;;;;;1.90;1.10;;;20.00;99.90;;;;;;4992334;28;20030;-80
2022/06/09 09:26:44;;;;;;;2.60;0.80;;;19.90;99.90;;;;;;5004866;28;20064;-78
2022/06/09 09:29:18;;;;;;;4.00;1.00;;;19.90;99.90;;;;;;4975812;28;20042;-78
2022/06/09 09:32:05;;;;;;;0.98;0.85;;;20.00;99.90;;;;;;5045993;28;20033;-78
2022/06/09 09:34:35;;;;;;;1.48;0.90;;;20.20;99.90;;;;;;5001061;28;20037;-78
2022/06/09 09:37:22;;;;;;;4.22;1.00;;;20.30;99.90;;;;;;5012823;28;20030;-79
2022/06/09 09:39:58;;;;;;;3.65;0.82;;;20.40;99.90;;;;;;5007208;28;20080;-78
2022/06/09 09:42:30;;;;;;;0.50;0.50;;;20.40;99.90;;;;;;5005265;28;20062;-78
2022/06/09 09:45:11;;;;;;;0.90;0.82;;;20.40;99.90;;;;;;5007840;28;20041;-78
2022/06/09 09:47:59;;;;;;;1.17;1.08;;;20.30;99.90;;;;;;5001567;28;20021;-78
2022/06/09 09:50:37;;;;;;;1.08;0.82;;;20.20;99.90;;;;;;5003432;28;20030;-78
2022/06/09 09:53:23;;;;;;;2.45;1.42;;;20.30;99.90;;;;;;5006922;28;20472;-78
2022/06/09 09:55:54;;;;;;;3.20;1.65;;;20.40;99.90;;;;;;5003261;28;20096;-80
2022/06/09 09:58:33;;;;;;;2.33;1.00;;;20.60;99.90;;;;;;4995362;28;20060;-79
2022/06/09 10:01:16;;;;;;;1.85;0.80;;;20.80;99.90;;;;;;5007889;28;20029;-78
2022/06/09 10:09:40;;;;;;;2.53;0.80;;;21.00;99.90;;;;;;4999413;28;20412;-79
2022/06/09 10:12:26;;;;;;;1.83;0.75;;;21.00;99.90;;;;;;5002653;28;20038;-83
2022/06/09 10:14:55;;;;;;;2.15;0.80;;;21.00;99.90;;;;;;5002196;28;20606;-78
2022/06/09 10:17:46;;;;;;;1.33;0.77;;;21.00;97.60;;;;;;4987594;28;20117;-78
2022/06/09 10:20:35;;;;;;;1.02;0.68;;;21.00;99.90;;;;;;4998634;28;20033;-79
2022/06/09 10:23:07;;;;;;;1.85;0.82;;;21.10;98.20;;;;;;4990868;28;20042;-80
2022/06/09 10:25:38;;;;;;;2.92;0.80;;;21.10;98.70;;;;;;4991899;28;20029;-80
2022/06/09 10:28:33;;;;;;;1.77;0.65;;;21.10;99.90;;;;;;5008661;28;20034;-77
2022/06/09 10:31:06;;;;;;;4.97;1.48;;;21.10;99.90;;;;;;5011181;28;20031;-81
2022/06/09 10:33:38;;;;;;;4.00;0.93;;;21.10;99.90;;;;;;5005542;28;20022;-79
2022/06/09 10:36:15;;;;;;;1.02;0.80;;;20.90;98.70;;;;;;5020729;28;20037;-80
2022/06/09 10:38:41;;;;;;;2.03;1.08;;;20.80;99.90;;;;;;5005911;28;20025;-79
2022/06/09 10:41:13;;;;;;;1.48;0.70;;;20.70;99.90;;;;;;5006248;28;20029;-82
2022/06/09 10:43:42;;;;;;;2.47;1.00;;;20.70;99.30;;;;;;5010312;28;20033;-77
2022/06/09 10:46:27;;;;;;;2.42;1.02;;;20.70;99.00;;;;;;5011373;28;20030;-81
2022/06/09 10:55:14;;;;;;;3.28;1.05;;;21.20;97.80;;;;;;4997775;28;20079;-80
2022/06/09 10:58:02;;;;;;;3.13;0.80;;;21.20;95.30;;;;;;4993420;28;20521;-81
2022/06/09 11:00:38;;;;;;;2.10;1.02;;;21.10;98.40;;;;;;4992343;28;20122;-78
2022/06/09 11:03:14;;;;;;;1.48;0.82;;;20.90;99.70;;;;;;4997993;28;20033;-78
2022/06/09 11:06:06;;;;;;;1.05;0.80;;;20.80;99.90;;;;;;4989338;28;20484;-80
2022/06/09 11:08:38;;;;;;;1.67;0.90;;;20.40;99.90;;;;;;5004878;28;20057;-79
2022/06/09 11:11:36;;;;;;;1.00;0.90;;;20.20;99.90;;;;;;5004295;28;20041;-83
2022/06/09 11:14:13;;;;;;;3.42;0.80;;;20.00;98.30;;;;;;5022990;28;20034;-82
2022/06/09 11:16:55;;;;;;;1.88;0.90;;;19.80;99.90;;;;;;5020420;28;20041;-82
2022/06/09 11:19:26;;;;;;;2.85;0.88;;;19.60;99.90;;;;;;4984894;28;20692;-80
2022/06/09 11:22:17;;;;;;;1.65;0.98;;;19.50;99.90;;;;;;5008935;28;20436;-80
2022/06/09 11:24:43;;;;;;;1.27;0.95;;;19.30;99.90;;;;;;4995374;28;20446;-80
2022/06/09 11:27:24;;;;;;;1.25;0.73;;;19.20;99.90;;;;;;4991465;28;20050;-77
2022/06/09 11:30:10;;;;;;;1.75;0.88;;;19.00;99.90;;;;;;5002048;28;20026;-79
2022/06/09 11:32:55;;;;;;;;;;;18.80;99.90;;;;;;5000659;28;20096;-84
2022/06/09 11:36:07;;;;;;;2.17;0.98;;;18.60;99.90;;;;;;5009924;28;19913;-80
2022/06/09 11:38:57;;;;;;;0.90;0.65;;;18.50;99.90;;;;;;4964880;28;20188;-80
2022/06/09 11:41:29;;;;;;;2.85;0.90;;;18.20;99.90;;;;;;4964303;28;20110;-79
2022/06/09 11:44:01;;;;;;;1.00;0.90;;;18.10;99.90;;;;;;4989450;28;20027;-78
2022/06/09 11:46:32;;;;;;;2.30;1.00;;;17.90;99.90;;;;;;5010027;28;20029;-82
2022/06/09 11:49:03;;;;;;;0.88;0.88;;;17.80;99.90;;;;;;4993749;28;20076;-82
2022/06/09 11:51:31;;;;;;;2.13;0.93;;;17.60;99.90;;;;;;4987557;28;20026;-81
2022/06/09 11:53:59;;;;;;;1.10;0.95;;;17.50;99.90;;;;;;5007882;28;20128;-80
2022/06/09 11:56:40;;;;;;;1.55;0.77;;;17.40;99.90;;;;;;5003250;28;20014;-82
2022/06/09 11:59:12;;;;;;;1.90;1.10;;;17.30;99.90;;;;;;5009932;28;20030;-80
2022/06/09 12:01:38;;;;;;;1.75;1.10;;;17.30;99.90;;;;;;5007964;28;20064;-81
2022/06/09 12:04:23;;;;;;;3.05;0.90;;;17.30;99.90;;;;;;5027218;28;20025;-80
2022/06/09 12:07:10;;;;;;;1.40;0.95;;;17.30;99.90;;;;;;4991377;28;20110;-80
2022/06/09 12:10:00;;;;;;;4.93;0.95;;;17.30;99.90;;;;;;5006715;28;20018;-81
2022/06/09 12:12:37;;;;;;;2.15;1.10;;;17.30;99.90;;;;;;5013179;28;20109;-80
2022/06/09 12:15:09;;;;;;;3.65;1.10;;;17.30;99.90;;;;;;5022303;28;20033;-81
2022/06/09 12:17:35;;;;;;;3.00;1.50;;;17.30;99.90;;;;;;5010712;28;20049;-81
2022/06/09 12:20:08;;;;;;;4.00;1.85;;;17.30;99.90;;;;;;4994441;28;20026;-80
2022/06/09 12:22:39;;;;;;;2.40;1.00;;;17.30;99.90;;;;;;5007924;28;20030;-80
2022/06/09 12:25:10;;;;;;;1.95;1.00;;;17.30;99.90;;;;;;5004024;28;20045;-79
2022/06/09 12:27:36;;;;;;;1.50;0.70;;;17.40;99.90;;;;;;4990696;28;20436;-80
2022/06/09 12:30:02;;;;;;;3.17;1.20;;;17.40;99.90;;;;;;5004749;28;20715;-81
2022/06/09 12:32:43;;;;;;;2.70;0.90;;;17.60;99.90;;;;;;5011843;28;20040;-81
2022/06/09 12:35:30;;;;;;;0.95;0.80;;;17.90;99.90;;;;;;5008267;28;20113;-77
2022/06/09 12:38:03;;;;;;;1.58;0.88;;;18.30;99.90;;;;;;5004564;28;20019;-82
2022/06/09 12:40:40;;;;;;;2.95;1.20;;;18.70;99.90;;;;;;5008793;28;20034;-80
2022/06/09 12:43:20;;;;;;;1.88;0.82;;;19.00;99.90;;;;;;4985091;28;20037;-80
2022/06/09 12:46:18;;;;;;;3.78;0.70;;;19.30;99.90;;;;;;4988683;28;20034;-82
2022/06/09 12:48:45;;;;;;;2.10;0.90;;;19.50;99.90;;;;;;4997308;28;20045;-81
2022/06/09 12:51:23;;;;;;;0.70;0.70;;;19.60;99.90;;;;;;5006412;28;20026;-82
2022/06/09 12:53:59;;;;;;;1.20;0.68;;;19.60;99.90;;;;;;5015459;28;20029;-78
2022/06/09 12:56:28;;;;;;;2.90;0.98;;;19.60;99.90;;;;;;5006899;28;20041;-77
2022/06/09 12:58:55;;;;;;;0.70;0.70;;;19.70;99.90;;;;;;5005640;28;20026;-82
2022/06/09 13:01:24;;;;;;;2.58;1.10;;;19.70;99.90;;;;;;5004523;28;20104;-81
2022/06/09 13:03:55;;;;;;;2.15;0.68;;;19.80;99.90;;;;;;5010230;28;20041;-80
2022/06/09 13:06:21;;;;;;;0.85;0.77;;;19.70;99.90;;;;;;5007534;28;20026;-82
2022/06/09 13:08:50;;;;;;;3.00;0.73;;;19.60;99.90;;;;;;5005032;28;20492;-81
2022/06/09 13:14:20;;;;;;;0.98;0.77;;;19.50;99.90;;;;;;5003920;28;20026;-78
2022/06/09 13:16:49;;;;;;;0.77;0.70;;;19.40;99.90;;;;;;5003969;28;20030;-80
2022/06/09 13:19:18;;;;;;;0.98;0.98;;;19.20;99.90;;;;;;5005403;28;20025;-80
2022/06/09 13:21:45;;;;;;;1.13;1.05;;;19.10;99.90;;;;;;5012806;28;20068;-78
2022/06/09 13:24:29;;;;;;;1.02;0.93;;;18.90;99.90;;;;;;4985806;28;20061;-81
2022/06/09 13:26:56;;;;;;;1.70;0.70;;;18.70;99.90;;;;;;4999898;28;20124;-80
2022/06/09 13:29:37;;;;;;;2.65;0.88;;;18.50;99.90;;;;;;5002228;28;20019;-82
2022/06/09 13:32:44;;;;;;;0.80;0.80;;;18.30;99.90;;;;;;5006660;28;20049;-81